GMTN  Saniat Rmel  Airport

Morocco

Add Bookmark
ICAO GMTN
IATA TTU
Type Airport
Status Operational
Latitude
35° 35' 39" N
35.594299
Longitude
5° 19' 12" W
-5.320020
Local (DST + 1) UTC (GMT 0)
Jul 5, 2015 11:13 Jul 5, 2015 23:13
Sunrise-Sunset Local UTC
Begin Civil Twilight 04:40 04:40
Sunrise 05:09 05:09
Sunset 07:41 19:41
End Civil Twilight 08:11 20:11
VFR
VFR
MVFR
MVFR
IFR
IFR
LIFR
LIFR
Unknown
Unavailable

Current Weather

METAR Observed
GMTN 052200Z AUTO 05005KT R24///// /// 24/21 Q1016 Sun, Jul 5, 2015 @ 22:00 UTC
(1 Hour, 13 Minutes ago)
Wind Conditions
050° at 5 knots (9 kph)
  • No significant weather
Temperatures Readings Precipitation
Current Temp
24°C
75°F
Dewpoint
21°C
70°F
Humidity 83%
Altimeter 30" Hg
Sea Level Pressure 1,016 mb
Field Elevation
10 m
33 ft
None Recorded

Additional weather within a 92.6km radius of GMTN

Map ICAO Location
GMTT 55.9km W/NW (285°)
LXGB 62km N (360°)
VFR
VFR
MVFR
MVFR
IFR
IFR
LIFR
LIFR
Unknown
Unavailable
-
-

CheckWX.com is intended as a tool to help pilots better visualize weather data. It is not intended as a substitute for an official weather briefing obtained from a Flight Service Station. CheckWX.com does not meet the FAA requirements for an official pre-flight weather briefing. Therefore, it's important that pilots still call and obtain an official FSS pre-flight weather briefing.

© 2007-2015 CheckWX.com
23:13:42 UTC